Time;durP1;ratioP1;P1;durP2;ratioP2;P2;SDS_P1;SDS_P2;PMS_P1;PMS_P2;Temp;Humidity;BMP_temperature;BMP_pressure;BME280_temperature;BME280_humidity;BME280_pressure;Samples;Min_cycle;Max_cycle;Signal;HPM_P1;HPM_P2
2021/01/04 00:00:27;;;;;;;128.62;74.92;;;;;;;5.89;86.12;100024.77;2811923;83;21169;-77
2021/01/04 00:05:27;;;;;;;113.30;64.62;;;;;;;5.85;85.88;100030.27;2807370;83;21510;-77
2021/01/04 00:09:41;;;;;;;112.90;70.85;;;;;;;5.79;85.86;100038.59;2802242;84;21627;-76
2021/01/04 00:13:55;;;;;;;111.92;67.67;;;;;;;5.79;85.99;100034.64;2800767;84;21650;-75
2021/01/04 00:18:29;;;;;;;106.78;68.25;;;;;;;5.81;86.37;100032.73;2819343;83;21748;-75
2021/01/04 00:22:53;;;;;;;102.10;63.10;;;;;;;5.89;86.58;100026.09;2793999;84;21663;-74
2021/01/04 00:27:27;;;;;;;102.65;63.20;;;;;;;5.88;85.79;100017.80;2811651;84;21173;-75
2021/01/04 00:31:36;;;;;;;118.05;72.05;;;;;;;5.81;85.87;100005.02;2812854;84;21157;-74
2021/01/04 00:35:46;;;;;;;117.62;74.85;;;;;;;5.79;86.34;100002.96;2803272;84;21608;-74
2021/01/04 00:40:01;;;;;;;112.65;69.67;;;;;;;5.75;86.18;100005.44;2786110;84;21214;-75
2021/01/04 00:44:09;;;;;;;112.22;71.40;;;;;;;5.69;85.86;100012.42;2814369;83;21137;-75
2021/01/04 00:48:18;;;;;;;130.27;75.65;;;;;;;5.74;87.02;100018.72;2764918;84;21176;-74
2021/01/04 00:52:55;;;;;;;115.10;72.78;;;;;;;5.74;87.00;100018.27;2790375;84;21591;-74
2021/01/04 00:57:40;;;;;;;129.25;75.45;;;;;;;5.72;86.69;100020.16;2796914;84;21587;-73
2021/01/04 01:02:03;;;;;;;115.32;68.37;;;;;;;5.71;87.28;100025.07;2800398;84;21138;-74
2021/01/04 01:06:29;;;;;;;125.40;73.57;;;;;;;5.65;87.29;100036.87;2803727;84;21189;-73
2021/01/04 01:10:47;;;;;;;115.77;68.07;;;;;;;5.61;86.99;100037.16;2801158;84;21217;-75
2021/01/04 01:14:56;;;;;;;101.60;65.85;;;;;;;5.53;87.30;100038.52;2806652;84;21643;-74
2021/01/04 01:19:28;;;;;;;108.72;65.70;;;;;;;5.50;87.42;100045.77;2788282;84;21178;-73
2021/01/04 01:23:38;;;;;;;105.03;64.60;;;;;;;5.45;87.27;100048.70;2799302;84;21177;-72
2021/01/04 01:28:43;;;;;;;119.20;68.90;;;;;;;5.49;88.23;100044.91;2801750;84;21158;-73
2021/01/04 01:33:31;;;;;;;103.10;64.37;;;;;;;5.55;87.66;100051.13;2848441;82;21192;-73
2021/01/04 01:37:48;;;;;;;116.88;74.65;;;;;;;5.61;87.60;100047.72;2857433;82;21656;-73
2021/01/04 01:42:13;;;;;;;114.88;69.25;;;;;;;5.70;87.86;100046.64;2869048;82;21843;-74
2021/01/04 01:46:42;;;;;;;118.87;74.20;;;;;;;5.80;87.17;100039.45;2862550;82;21164;-70
2021/01/04 01:50:53;;;;;;;122.53;76.02;;;;;;;5.94;88.53;100039.37;2868974;82;21166;-74
2021/01/04 01:55:36;;;;;;;100.75;65.28;;;;;;;6.02;87.35;100038.89;2870086;82;21166;-73
2021/01/04 02:00:17;;;;;;;103.45;69.17;;;;;;;5.96;86.60;100048.03;2867670;82;21681;-74
2021/01/04 02:04:45;;;;;;;120.28;72.37;;;;;;;6.13;88.70;100048.73;2872798;82;21145;-72
2021/01/04 02:08:52;;;;;;;114.85;66.30;;;;;;;6.11;86.30;100040.93;2864579;82;21552;-72
2021/01/04 02:13:26;;;;;;;116.77;73.42;;;;;;;6.10;85.84;100035.28;2835685;82;21655;-72
2021/01/04 02:18:03;;;;;;;115.88;67.08;;;;;;;6.13;86.50;100039.03;2875691;82;21304;-73
2021/01/04 02:22:12;;;;;;;;;;;;;;;6.26;88.19;100041.68;2881926;82;21157;-73
2021/01/04 02:26:23;;;;;;;111.92;68.10;;;;;;;6.39;87.89;100031.12;2892854;82;20185;-72
2021/01/04 02:30:26;;;;;;;104.97;67.80;;;;;;;6.40;86.62;100035.45;2875048;82;21600;-72
2021/01/04 02:34:36;;;;;;;107.05;67.65;;;;;;;6.41;87.52;100033.18;2874737;82;21619;-72
2021/01/04 02:38:44;;;;;;;94.83;63.83;;;;;;;6.46;87.30;100029.37;2882029;82;21147;-72
2021/01/04 02:42:49;;;;;;;122.07;71.92;;;;;;;6.55;87.83;100021.65;2870156;82;21702;-72
2021/01/04 02:47:13;;;;;;;101.25;63.68;;;;;;;6.53;86.35;100026.69;2855555;82;21588;-72
2021/01/04 02:51:26;;;;;;;111.70;67.60;;;;;;;6.55;87.41;100030.07;2834224;82;22166;-73
2021/01/04 02:55:54;;;;;;;109.83;68.35;;;;;;;6.56;86.79;100027.80;2839545;82;21161;-74
2021/01/04 03:00:00;;;;;;;99.67;65.65;;;;;;;6.55;86.73;100036.19;2853814;82;21109;-72
2021/01/04 03:04:04;;;;;;;111.25;69.58;;;;;;;6.49;86.35;100034.47;2775317;85;21162;-71
2021/01/04 03:08:07;;;;;;;112.60;71.65;;;;;;;6.47;86.44;100029.73;2775327;85;21593;-72
2021/01/04 03:12:20;;;;;;;98.72;65.10;;;;;;;6.40;85.60;100030.66;2770541;85;21640;-73
2021/01/04 03:16:46;;;;;;;106.85;71.57;;;;;;;6.43;85.67;100020.70;2753339;85;21165;-73
2021/01/04 03:20:50;;;;;;;97.17;61.30;;;;;;;6.37;85.02;100034.80;2753769;86;21154;-71
2021/01/04 03:24:53;;;;;;;109.00;66.00;;;;;;;6.27;84.06;100043.38;2753636;86;21150;-72
2021/01/04 03:28:56;;;;;;;110.95;67.30;;;;;;;6.12;84.16;100031.20;2753445;86;21599;-70
2021/01/04 03:32:59;;;;;;;98.00;61.30;;;;;;;6.16;85.68;100031.35;2753723;86;21165;-70
2021/01/04 03:37:03;;;;;;;101.05;62.62;;;;;;;6.26;86.16;100031.11;2753464;86;21166;-71
2021/01/04 03:41:07;;;;;;;111.55;72.62;;;;;;;6.25;84.46;100034.71;2753519;86;21187;-72
2021/01/04 03:45:11;;;;;;;92.97;56.90;;;;;;;6.28;86.43;100049.48;2753657;86;21146;-71
2021/01/04 03:49:16;;;;;;;113.08;69.25;;;;;;;6.31;86.36;100049.30;2783500;84;21177;-72
2021/01/04 03:53:21;;;;;;;115.45;66.92;;;;;;;6.43;86.69;100053.73;2792846;85;21170;-71
2021/01/04 03:57:24;;;;;;;103.70;64.35;;;;;;;6.40;85.77;100050.47;2781077;85;21616;-68
2021/01/04 04:01:26;;;;;;;105.15;67.75;;;;;;;6.41;86.12;100047.70;2815554;84;21145;-70
2021/01/04 04:05:31;;;;;;;107.35;65.50;;;;;;;6.47;86.45;100037.66;2817211;84;21129;-69
2021/01/04 04:09:35;;;;;;;92.15;60.60;;;;;;;6.37;84.75;100034.80;2784311;84;21661;-69
2021/01/04 04:13:38;;;;;;;98.97;65.25;;;;;;;6.19;83.83;100027.21;2754878;86;21197;-68
2021/01/04 04:17:41;;;;;;;119.87;70.60;;;;;;;6.18;85.12;100031.27;2801166;85;21133;-68
2021/01/04 04:21:53;;;;;;;98.50;61.80;;;;;;;6.19;85.92;100043.06;2801324;84;21600;-68
2021/01/04 04:25:55;;;;;;;110.45;65.55;;;;;;;6.13;84.82;100046.09;2773870;85;21161;-67
2021/01/04 04:29:59;;;;;;;109.00;68.70;;;;;;;6.08;85.35;100046.88;2773616;85;21194;-67
2021/01/04 04:34:02;;;;;;;111.52;67.95;;;;;;;6.08;84.67;100038.47;2773651;85;21185;-70
2021/01/04 04:38:06;;;;;;;110.60;67.30;;;;;;;5.98;85.27;100050.09;2773797;85;21143;-69
2021/01/04 04:42:13;;;;;;;112.15;70.72;;;;;;;6.08;86.25;100035.83;2773536;85;21198;-69
2021/01/04 04:46:50;;;;;;;113.60;66.35;;;;;;;6.16;86.16;100045.05;2772037;85;21218;-67
2021/01/04 04:51:38;;;;;;;108.75;69.05;;;;;;;6.07;85.31;100049.16;2734259;86;21142;-70
2021/01/04 04:55:50;;;;;;;;;;;;;;;6.06;85.66;100050.94;2755836;86;21159;-67
2021/01/04 05:00:22;;;;;;;108.35;74.30;;;;;;;6.07;85.04;100059.72;2768043;86;20196;-67
2021/01/04 05:04:53;;;;;;;101.65;65.87;;;;;;;6.05;85.72;100053.70;2743286;86;21176;-69
2021/01/04 05:09:15;;;;;;;104.27;70.40;;;;;;;6.03;84.89;100049.82;2767610;85;21579;-68
2021/01/04 05:13:42;;;;;;;107.65;69.53;;;;;;;5.85;84.63;100056.66;2750288;85;21153;-70
2021/01/04 05:18:11;;;;;;;127.02;78.83;;;;;;;5.84;86.21;100071.30;2726518;85;21164;-71
2021/01/04 05:22:57;;;;;;;107.87;66.50;;;;;;;5.85;86.47;100077.78;2779277;85;21154;-69
2021/01/04 05:27:21;;;;;;;107.12;65.40;;;;;;;5.83;86.50;100078.36;2754476;85;21200;-68
2021/01/04 05:31:38;;;;;;;106.83;69.72;;;;;;;5.81;85.82;100067.55;2776799;85;21600;-69
2021/01/04 05:35:45;;;;;;;107.95;68.37;;;;;;;5.73;85.75;100078.59;2746690;86;21150;-70
2021/01/04 05:40:14;;;;;;;;;;;;;;;5.68;85.91;100072.75;2749270;86;21176;-63
2021/01/04 05:44:42;;;;;;;123.05;76.90;;;;;;;5.67;85.76;100076.34;2743079;86;20157;-69
2021/01/04 05:49:13;;;;;;;115.10;74.50;;;;;;;5.65;87.03;100070.31;2807656;83;21145;-69
2021/01/04 05:53:17;;;;;;;102.97;69.40;;;;;;;5.67;86.54;100075.88;2821218;84;21184;-71
2021/01/04 05:57:20;;;;;;;106.50;67.78;;;;;;;5.68;86.33;100075.39;2769819;86;21173;-67
2021/01/04 06:01:26;;;;;;;103.02;64.65;;;;;;;5.70;86.60;100076.99;2841702;83;21174;-67
2021/01/04 06:05:31;;;;;;;104.92;66.33;;;;;;;5.76;86.53;100070.94;2821052;84;21221;-67
2021/01/04 06:09:34;;;;;;;116.25;73.28;;;;;;;5.71;85.87;100069.45;2792092;85;21177;-69
2021/01/04 06:13:45;;;;;;;129.95;74.58;;;;;;;5.77;87.15;100077.45;2794318;85;21169;-69
2021/01/04 06:17:48;;;;;;;102.85;67.72;;;;;;;5.74;86.35;100071.52;2764724;84;21166;-66
2021/01/04 06:22:16;;;;;;;110.70;68.22;;;;;;;5.70;85.92;100080.13;2810507;84;21445;-68
2021/01/04 06:26:22;;;;;;;124.18;87.08;;;;;;;5.67;85.83;100078.97;2810530;84;21619;-68
2021/01/04 06:30:36;;;;;;;132.00;81.50;;;;;;;5.60;85.89;100082.97;2797979;85;21174;-71
2021/01/04 06:34:40;;;;;;;133.12;81.80;;;;;;;5.54;86.13;100083.74;2824059;83;21121;-68
2021/01/04 06:38:44;;;;;;;116.08;73.42;;;;;;;5.58;87.08;100101.52;2762774;85;21222;-69
2021/01/04 06:42:48;;;;;;;104.92;67.03;;;;;;;5.60;87.06;100104.08;2753519;86;21575;-71
2021/01/04 06:47:01;;;;;;;112.75;68.42;;;;;;;5.60;86.77;100104.94;2780157;85;21156;-69
2021/01/04 06:51:19;;;;;;;103.47;66.40;;;;;;;5.61;86.65;100101.81;2770804;85;21180;-70
2021/01/04 06:56:04;;;;;;;100.60;62.58;;;;;;;5.60;86.34;100114.63;2726150;87;21172;-69
2021/01/04 07:00:52;;;;;;;103.10;66.07;;;;;;;5.67;87.12;100118.56;2802641;84;21188;-69
2021/01/04 07:05:41;;;;;;;100.53;61.42;;;;;;;5.73;86.89;100122.15;2799080;84;21560;-68
2021/01/04 07:10:14;;;;;;;106.45;68.85;;;;;;;5.78;86.56;100124.01;2792005;84;21177;-69
2021/01/04 07:14:31;;;;;;;116.10;70.25;;;;;;;5.79;86.08;100130.98;2806283;84;21098;-67
2021/01/04 07:18:42;;;;;;;112.77;70.25;;;;;;;5.79;86.08;100130.98;2798508;84;21177;-70
2021/01/04 07:23:11;;;;;;;111.55;71.55;;;;;;;5.95;87.37;100131.31;3117265;75;22872;-68
2021/01/04 07:27:55;;;;;;;99.70;65.28;;;;;;;5.88;87.15;100141.42;3064852;77;22174;-68
2021/01/04 07:32:26;;;;;;;122.05;74.40;;;;;;;5.83;86.79;100145.67;3060804;76;21137;-69
2021/01/04 07:36:49;;;;;;;104.83;65.70;;;;;;;5.80;86.78;100161.71;3019906;77;21149;-68
2021/01/04 07:41:04;;;;;;;109.70;67.17;;;;;;;5.83;86.82;100158.04;2971065;80;21109;-68
2021/01/04 07:45:45;;;;;;;93.22;65.40;;;;;;;5.83;86.68;100146.16;2954484;79;21777;-69
2021/01/04 07:50:23;;;;;;;123.53;75.65;;;;;;;5.89;86.92;100157.63;2889925;81;21149;-68
2021/01/04 07:54:29;;;;;;;;;;;;;;;5.91;86.10;100158.38;2965602;80;21108;-69
2021/01/04 07:58:52;;;;;;;115.43;72.20;;;;;;;5.86;86.54;100153.88;2873608;81;20161;-71
2021/01/04 08:03:27;;;;;;;191.03;99.15;;;;;;;5.84;86.50;100160.56;2989899;79;21110;-69
2021/01/04 08:07:41;;;;;;;146.77;89.00;;;;;;;5.73;86.09;100153.82;2963299;80;21112;-68
2021/01/04 08:12:24;;;;;;;124.78;83.40;;;;;;;5.58;86.13;100154.30;2974572;79;21102;-68
2021/01/04 08:16:35;;;;;;;180.42;125.27;;;;;;;5.50;86.39;100160.55;2962895;80;21116;-67
2021/01/04 08:20:46;;;;;;;117.57;69.65;;;;;;;5.49;87.05;100163.64;2990084;79;21145;-68
2021/01/04 08:24:51;;;;;;;119.97;77.50;;;;;;;5.56;87.22;100158.38;2989321;79;21134;-68
2021/01/04 08:29:11;;;;;;;188.70;122.63;;;;;;;5.69;87.80;100166.81;2990168;79;21161;-71
2021/01/04 08:33:26;;;;;;;160.88;102.90;;;;;;;5.73;87.44;100174.94;2952429;79;21155;-70
2021/01/04 08:37:37;;;;;;;192.77;121.85;;;;;;;5.75;87.27;100177.00;2929013;80;21161;-70
2021/01/04 08:41:42;;;;;;;176.75;102.95;;;;;;;5.73;86.92;100181.53;2934696;79;21140;-68
2021/01/04 08:45:46;;;;;;;161.30;98.47;;;;;;;5.69;86.74;100186.15;2908471;79;21132;-68
2021/01/04 08:50:08;;;;;;;261.15;161.52;;;;;;;5.74;87.22;100187.19;2913582;80;21152;-70
2021/01/04 08:54:22;;;;;;;139.12;85.62;;;;;;;5.79;87.37;100177.17;2933560;80;21148;-68
2021/01/04 08:58:36;;;;;;;116.10;78.45;;;;;;;5.88;86.83;100192.04;2953506;80;21137;-68
2021/01/04 09:13:34;;;;;;;105.90;65.60;;;;;;;5.85;86.35;100197.89;2920627;79;23004;-70
2021/01/04 09:17:49;;;;;;;;;;;;;;;5.78;86.16;100197.06;2907904;81;21122;-68
2021/01/04 09:22:04;;;;;;;115.60;70.52;;;;;;;5.81;86.64;100204.81;2897871;82;20469;-70
2021/01/04 09:26:29;;;;;;;135.33;78.33;;;;;;;5.82;86.56;100200.73;2872957;81;21172;-68
2021/01/04 09:30:32;;;;;;;99.47;63.78;;;;;;;5.86;86.86;100191.67;2879738;82;21152;-67
2021/01/04 09:34:37;;;;;;;98.42;64.92;;;;;;;5.90;85.71;100183.09;2892239;82;21117;-69
2021/01/04 09:38:42;;;;;;;105.75;68.62;;;;;;;5.92;85.29;100181.69;2858291;82;21125;-67
2021/01/04 09:42:46;;;;;;;105.63;66.53;;;;;;;5.93;85.65;100183.37;2878147;82;21579;-67
2021/01/04 09:47:00;;;;;;;106.72;66.85;;;;;;;6.04;86.08;100184.87;2873089;82;21607;-68
2021/01/04 09:51:07;;;;;;;103.42;68.87;;;;;;;6.09;85.44;100179.30;2864014;82;21121;-69
2021/01/04 09:55:13;;;;;;;92.50;62.47;;;;;;;6.16;85.98;100179.75;2875937;82;21623;-67
2021/01/04 09:59:23;;;;;;;115.95;74.30;;;;;;;6.25;85.78;100184.42;2876638;82;21196;-70
2021/01/04 10:03:27;;;;;;;101.75;64.15;;;;;;;6.32;85.62;100175.16;2888006;80;21152;-71
2021/01/04 10:07:33;;;;;;;94.22;61.23;;;;;;;6.31;85.10;100176.11;2857105;81;21140;-68
2021/01/04 10:11:36;;;;;;;101.47;68.57;;;;;;;6.26;84.98;100172.44;2877573;81;21144;-69
2021/01/04 10:15:41;;;;;;;106.70;60.45;;;;;;;6.19;84.69;100165.02;2900307;81;22218;-70
2021/01/04 10:19:59;;;;;;;106.63;64.17;;;;;;;6.08;84.46;100162.59;2891749;81;21168;-69
2021/01/04 10:24:23;;;;;;;104.83;66.72;;;;;;;6.10;84.99;100165.14;3125205;76;23404;-56
2021/01/04 10:33:33;;;;;;;139.92;83.22;;;;;;;6.04;85.32;100162.42;2952291;80;21108;-55
2021/01/04 10:38:18;;;;;;;108.07;63.00;;;;;;;6.08;85.84;100154.66;2927910;80;21070;-56
2021/01/04 10:42:25;;;;;;;111.95;68.78;;;;;;;6.06;85.31;100169.77;2952293;80;21092;-56
2021/01/04 10:46:43;;;;;;;95.50;59.25;;;;;;;6.04;85.57;100158.46;2952656;80;21917;-55
2021/01/04 10:50:51;;;;;;;103.70;65.40;;;;;;;6.00;85.15;100166.18;2933954;79;21137;-55
2021/01/04 10:54:56;;;;;;;109.72;67.12;;;;;;;6.00;85.65;100154.30;2932239;81;21081;-56
2021/01/04 10:59:24;;;;;;;102.27;68.30;;;;;;;6.04;85.54;100162.42;2939704;81;21093;-56
2021/01/04 11:03:30;;;;;;;98.47;68.25;;;;;;;6.03;85.22;100165.18;2900142;81;21471;-56
2021/01/04 11:07:34;;;;;;;101.10;65.80;;;;;;;6.03;85.20;100155.45;2894552;80;21550;-55
2021/01/04 11:11:42;;;;;;;105.85;60.67;;;;;;;6.08;85.64;100147.23;2927044;81;21061;-56
2021/01/04 11:16:06;;;;;;;105.67;63.15;;;;;;;6.18;85.63;100148.80;2949633;80;21152;-55
2021/01/04 11:20:15;;;;;;;102.22;62.90;;;;;;;6.20;84.91;100148.22;2960089;80;21101;-56
2021/01/04 11:24:24;;;;;;;106.75;65.50;;;;;;;6.22;85.09;100151.61;2884383;80;21259;-56
2021/01/04 11:28:28;;;;;;;102.27;61.98;;;;;;;6.24;84.78;100148.38;2881509;82;21145;-56
2021/01/04 11:32:48;;;;;;;94.70;64.50;;;;;;;6.25;84.58;100146.11;2890391;82;21106;-56
2021/01/04 11:36:57;;;;;;;91.55;62.20;;;;;;;6.18;84.47;100136.42;2989834;78;21117;-56
2021/01/04 11:41:01;;;;;;;93.70;59.98;;;;;;;6.11;84.34;100132.05;3001541;78;21058;-55
2021/01/04 11:45:15;;;;;;;107.72;68.35;;;;;;;6.09;84.90;100129.98;3002238;78;21081;-55
2021/01/04 11:49:18;;;;;;;90.12;63.45;;;;;;;6.10;84.87;100126.39;2989716;79;21081;-56
2021/01/04 11:53:35;;;;;;;96.65;62.27;;;;;;;6.09;84.88;100126.02;3033464;78;21082;-55
2021/01/04 11:57:40;;;;;;;90.45;60.52;;;;;;;6.13;84.86;100122.22;3043760;78;21105;-56
2021/01/04 12:01:44;;;;;;;93.45;60.40;;;;;;;6.18;84.59;100115.78;3021836;78;21069;-56
2021/01/04 12:05:58;;;;;;;98.25;59.23;;;;;;;6.17;84.53;100111.45;2989165;79;21094;-55
2021/01/04 12:10:02;;;;;;;126.72;79.70;;;;;;;6.15;84.57;100114.18;2989893;79;21074;-56
2021/01/04 12:14:10;;;;;;;116.62;66.92;;;;;;;6.12;84.33;100115.70;2930239;79;21129;-55
2021/01/04 12:18:14;;;;;;;105.90;67.42;;;;;;;6.09;84.74;100123.38;3034446;78;21055;-56
2021/01/04 12:22:18;;;;;;;109.42;66.40;;;;;;;5.98;84.82;100117.42;3043855;78;21034;-55
2021/01/04 12:26:22;;;;;;;98.47;64.00;;;;;;;5.90;84.70;100111.80;3056002;77;21520;-55
2021/01/04 12:30:28;;;;;;;129.32;83.20;;;;;;;5.85;84.86;100109.45;3054269;78;21137;-55
2021/01/04 12:34:35;;;;;;;116.33;69.17;;;;;;;5.86;85.32;100115.60;3029821;78;21118;-56
2021/01/04 12:38:38;;;;;;;;;;;;;;;5.92;85.28;100119.64;3051505;78;21430;-56
2021/01/04 12:42:50;;;;;;;96.42;62.60;;;;;;;5.92;85.46;100117.83;2998205;79;20367;-57
2021/01/04 12:47:01;;;;;;;110.97;67.30;;;;;;;5.92;84.91;100117.83;3044931;78;21054;-57
2021/01/04 12:51:08;;;;;;;90.77;61.02;;;;;;;5.92;85.08;100119.64;3052756;77;21062;-56
2021/01/04 12:55:20;;;;;;;105.40;65.17;;;;;;;5.92;85.04;100127.07;3034212;78;21089;-57
2021/01/04 12:59:27;;;;;;;111.75;70.55;;;;;;;5.98;85.10;100130.62;2998099;78;21082;-57
2021/01/04 13:03:31;;;;;;;103.03;64.03;;;;;;;6.02;85.03;100131.31;3024490;78;21062;-57
2021/01/04 13:07:35;;;;;;;120.13;70.47;;;;;;;6.05;85.24;100138.20;3016821;76;21122;-56
2021/01/04 13:11:45;;;;;;;125.42;71.97;;;;;;;6.10;85.28;100131.67;2999354;78;21089;-56
2021/01/04 13:16:00;;;;;;;92.67;62.38;;;;;;;6.12;84.84;100132.88;3023722;77;21153;-57
2021/01/04 13:20:06;;;;;;;98.07;63.50;;;;;;;6.07;84.55;100125.73;2998119;78;21094;-56
2021/01/04 13:24:16;;;;;;;106.05;69.67;;;;;;;6.01;84.60;100124.34;2993376;79;21118;-56
2021/01/04 13:28:20;;;;;;;102.02;62.70;;;;;;;5.93;84.89;100126.61;3032727;78;21019;-56
2021/01/04 13:32:23;;;;;;;109.32;67.60;;;;;;;5.95;85.39;100126.03;3011137;78;21111;-56
2021/01/04 13:36:29;;;;;;;99.67;62.55;;;;;;;5.96;85.28;100127.23;3025918;78;21278;-55
2021/01/04 13:40:32;;;;;;;108.73;69.20;;;;;;;5.89;85.19;100135.66;2984843;80;21098;-55
2021/01/04 13:44:40;;;;;;;104.95;65.00;;;;;;;5.95;85.32;100129.50;2984814;80;21113;-55
2021/01/04 13:48:44;;;;;;;107.80;66.62;;;;;;;5.96;85.19;100135.16;2984678;80;21125;-55
2021/01/04 13:52:58;;;;;;;105.03;62.05;;;;;;;5.93;85.23;100139.32;2984728;80;21109;-55
2021/01/04 13:57:04;;;;;;;121.55;71.12;;;;;;;5.90;85.33;100139.53;3078393;77;21058;-56
2021/01/04 14:01:08;;;;;;;123.58;75.15;;;;;;;5.84;85.26;100131.52;3038729;77;21047;-55
2021/01/04 14:05:33;;;;;;;147.00;74.20;;;;;;;5.80;85.70;100140.59;3039001;78;21157;-54
2021/01/04 14:09:36;;;;;;;119.87;70.78;;;;;;;5.82;85.69;100137.38;3008384;78;21122;-55
2021/01/04 14:14:01;;;;;;;118.13;68.05;;;;;;;5.82;85.62;100135.23;2984492;79;21066;-55
2021/01/04 14:18:05;;;;;;;114.67;71.65;;;;;;;5.80;85.92;100137.12;2984657;79;21062;-55
2021/01/04 14:22:20;;;;;;;138.80;73.20;;;;;;;5.77;86.06;100132.02;2984459;79;21121;-55
2021/01/04 14:26:29;;;;;;;133.57;75.37;;;;;;;5.83;86.40;100132.96;2986478;79;21125;-55
2021/01/04 14:30:33;;;;;;;116.17;71.17;;;;;;;5.84;85.99;100134.16;2983892;80;21086;-56
2021/01/04 14:34:47;;;;;;;123.80;74.30;;;;;;;5.80;85.97;100130.52;3029573;77;21102;-56
2021/01/04 14:38:50;;;;;;;113.17;73.60;;;;;;;5.78;86.07;100127.97;3050993;76;21097;-57
2021/01/04 14:43:13;;;;;;;132.93;75.97;;;;;;;5.75;86.12;100136.09;3037866;78;21082;-57
2021/01/04 14:47:20;;;;;;;119.17;69.92;;;;;;;5.76;86.19;100135.14;3038345;78;21105;-56
2021/01/04 14:51:31;;;;;;;126.45;76.40;;;;;;;5.72;86.14;100140.25;3054196;77;21125;-56
2021/01/04 14:55:54;;;;;;;130.10;74.40;;;;;;;5.66;86.38;100139.30;2959885;79;21058;-55
2021/01/04 14:59:58;;;;;;;140.10;79.85;;;;;;;5.67;86.77;100150.23;3099885;77;21133;-56
2021/01/04 15:04:16;;;;;;;158.35;86.70;;;;;;;5.73;86.90;100152.50;2960104;80;21090;-55
2021/01/04 15:08:19;;;;;;;138.18;78.22;;;;;;;5.75;86.79;100155.02;3050651;77;21437;-56
2021/01/04 15:12:32;;;;;;;142.43;82.82;;;;;;;5.75;86.49;100145.78;3001736;78;21086;-56
2021/01/04 15:16:55;;;;;;;140.45;81.37;;;;;;;5.72;86.31;100141.08;2999592;77;21133;-56
2021/01/04 15:20:59;;;;;;;138.37;81.90;;;;;;;5.77;86.67;100144.75;3002742;77;21145;-56
2021/01/04 15:25:05;;;;;;;133.60;77.30;;;;;;;5.82;86.66;100141.83;3007092;79;21089;-56
2021/01/04 15:29:11;;;;;;;107.90;67.92;;;;;;;5.85;86.16;100135.86;3008657;78;21495;-57
2021/01/04 15:33:19;;;;;;;126.25;82.85;;;;;;;5.83;85.92;100146.98;3050180;78;21117;-56
2021/01/04 15:37:23;;;;;;;142.50;81.60;;;;;;;5.83;85.94;100144.84;3007667;78;21144;-56
2021/01/04 15:41:29;;;;;;;122.58;72.58;;;;;;;5.83;85.86;100136.92;3002570;79;21069;-56
2021/01/04 15:45:35;;;;;;;149.75;85.15;;;;;;;5.81;85.89;100144.09;3003459;76;21073;-56
2021/01/04 15:49:39;;;;;;;128.97;79.50;;;;;;;5.83;86.14;100142.20;3017863;76;21109;-57
2021/01/04 15:53:45;;;;;;;128.82;82.62;;;;;;;5.85;86.06;100140.30;2960053;78;21071;-56
2021/01/04 15:57:48;;;;;;;143.95;80.25;;;;;;;5.88;86.20;100144.52;3023551;78;21105;-56
2021/01/04 16:01:57;;;;;;;131.12;77.22;;;;;;;5.87;86.02;100146.33;3045625;78;21073;-56
2021/01/04 16:06:01;;;;;;;129.85;74.60;;;;;;;5.82;85.92;100143.98;3040811;78;21156;-55
2021/01/04 16:10:10;;;;;;;130.45;75.72;;;;;;;5.78;86.07;100152.19;3056393;78;21078;-57
2021/01/04 16:14:23;;;;;;;134.65;76.87;;;;;;;5.75;86.26;100148.42;3038722;78;21109;-56
2021/01/04 16:18:27;;;;;;;142.32;83.55;;;;;;;5.70;86.29;100144.30;3003828;78;21073;-57
2021/01/04 16:22:31;;;;;;;152.12;79.40;;;;;;;5.66;86.39;100140.62;3022450;76;21124;-57
2021/01/04 16:26:35;;;;;;;154.30;85.97;;;;;;;5.67;86.59;100143.63;3007252;76;21075;-57
2021/01/04 16:30:42;;;;;;;144.28;81.80;;;;;;;5.69;86.67;100150.52;3014824;77;21086;-56
2021/01/04 16:35:05;;;;;;;148.45;78.62;;;;;;;5.69;86.62;100143.06;3038251;78;21595;-56
2021/01/04 16:39:11;;;;;;;188.87;100.12;;;;;;;5.66;86.48;100145.90;3000277;78;21138;-57
2021/01/04 16:43:16;;;;;;;150.70;78.42;;;;;;;5.57;86.79;100148.19;3004462;78;21078;-57
2021/01/04 16:47:20;;;;;;;150.90;82.95;;;;;;;5.53;87.00;100145.37;3014495;77;21114;-57
2021/01/04 16:51:27;;;;;;;146.77;81.08;;;;;;;5.55;87.26;100153.18;3029553;78;21144;-57
2021/01/04 16:55:31;;;;;;;152.02;77.45;;;;;;;5.57;87.25;100159.20;3010692;78;21106;-57
2021/01/04 16:59:35;;;;;;;147.82;79.97;;;;;;;5.56;87.21;100155.73;3011519;78;21098;-57
2021/01/04 17:03:49;;;;;;;141.22;76.17;;;;;;;5.58;87.25;100158.26;2994750;77;21382;-57
2021/01/04 17:07:53;;;;;;;151.72;83.17;;;;;;;5.56;87.38;100147.81;2999948;78;21090;-57
2021/01/04 17:11:59;;;;;;;162.25;84.47;;;;;;;5.57;87.47;100152.15;3017737;77;21093;-57
2021/01/04 17:16:23;;;;;;;142.20;80.75;;;;;;;5.59;87.57;100153.35;2984449;78;21081;-57
2021/01/04 17:20:27;;;;;;;159.45;83.47;;;;;;;5.61;87.45;100146.22;3008127;78;21090;-57
2021/01/04 17:24:32;;;;;;;126.22;71.82;;;;;;;5.61;87.54;100152.81;2992617;77;21187;-57
2021/01/04 17:28:44;;;;;;;154.68;79.90;;;;;;;5.62;87.48;100146.59;2997055;78;21074;-58
2021/01/04 17:32:46;;;;;;;151.55;81.42;;;;;;;5.60;87.60;100141.88;3020133;78;21157;-58
2021/01/04 17:36:59;;;;;;;127.27;78.57;;;;;;;5.58;87.57;100140.65;3019782;78;21130;-57
2021/01/04 17:41:03;;;;;;;145.72;81.97;;;;;;;5.60;87.71;100142.34;3036222;78;21054;-57
2021/01/04 17:45:15;;;;;;;117.20;79.17;;;;;;;5.61;87.58;100142.26;3002916;78;21105;-57
2021/01/04 17:49:18;;;;;;;147.37;83.47;;;;;;;5.63;87.60;100142.14;3012844;78;21189;-57
2021/01/04 17:53:28;;;;;;;141.75;81.10;;;;;;;5.69;87.81;100149.20;3057707;78;21066;-57
2021/01/04 17:57:32;;;;;;;130.10;75.22;;;;;;;5.70;87.63;100149.58;3057154;78;21093;-56
2021/01/04 18:01:35;;;;;;;121.65;74.75;;;;;;;5.76;87.59;100150.98;3039414;78;21070;-56
2021/01/04 18:05:46;;;;;;;132.55;78.07;;;;;;;5.78;87.11;100156.14;3004301;78;21082;-57
2021/01/04 18:09:49;;;;;;;137.25;79.65;;;;;;;5.76;87.15;100164.64;3019198;78;21046;-57
2021/01/04 18:14:04;;;;;;;186.50;105.43;;;;;;;5.80;87.75;100169.63;3057511;78;21082;-57
2021/01/04 18:18:09;;;;;;;170.90;93.03;;;;;;;5.86;87.59;100180.28;3035700;78;21121;-56
2021/01/04 18:22:15;;;;;;;137.50;68.55;;;;;;;5.86;87.24;100183.75;3002685;79;21085;-58
2021/01/04 18:26:22;;;;;;;182.57;103.72;;;;;;;5.81;86.95;100183.69;3005575;78;21097;-57
2021/01/04 18:31:01;;;;;;;161.37;85.45;;;;;;;5.85;87.46;100179.91;3011828;79;21117;-58
2021/01/04 18:35:12;;;;;;;135.80;76.07;;;;;;;5.89;87.49;100188.45;3025819;76;21125;-57
2021/01/04 18:39:16;;;;;;;151.10;87.30;;;;;;;5.96;87.33;100187.14;3050112;77;21094;-58
2021/01/04 18:43:50;;;;;;;130.63;76.50;;;;;;;5.94;86.78;100189.03;3056508;77;21066;-57
2021/01/04 18:47:54;;;;;;;123.07;70.95;;;;;;;5.88;86.71;100185.44;3067116;77;21102;-58
2021/01/04 18:52:11;;;;;;;115.20;67.62;;;;;;;5.82;86.84;100199.91;3044891;77;21105;-58
2021/01/04 18:56:31;;;;;;;119.90;65.60;;;;;;;5.82;86.71;100196.77;3011783;79;21108;-57
2021/01/04 19:00:35;;;;;;;121.67;67.27;;;;;;;5.80;86.69;100196.02;3011831;79;21108;-57
2021/01/04 19:04:41;;;;;;;101.12;61.90;;;;;;;5.83;86.73;100205.06;3011910;79;21140;-58
2021/01/04 19:08:49;;;;;;;108.10;61.55;;;;;;;5.81;86.46;100212.23;3009747;79;21187;-57
2021/01/04 19:12:55;;;;;;;121.35;68.00;;;;;;;5.82;86.41;100214.42;3041341;77;21058;-57
2021/01/04 19:17:10;;;;;;;100.25;59.53;;;;;;;5.81;86.55;100208.28;3067241;77;21050;-58
2021/01/04 19:21:16;;;;;;;119.80;62.93;;;;;;;5.82;86.38;100217.06;3066933;77;21109;-58
2021/01/04 19:25:19;;;;;;;;;;;;;;;5.79;86.29;100222.05;3069673;77;21501;-61
2021/01/04 19:29:23;;;;;;;106.72;64.75;;;;;;;5.76;86.44;100216.97;3066883;77;20127;-58